Main page
METAR-TAF:

METAR-TAF

Airports :

Roland Garros Airport

Saint-Denis, Réunion

latitude: 20-53S, longitude: 055-31E, elevation: 21 m

Current weather observation

The report was made 18 minutes ago, at 19:00 UTC
Wind 6 kt from the South, varying between South/Southeast and West/Southwest
Temperature 19°C
Humidity 83%
Pressure 1019 hPa
Visibility 10 km or more

METAR: FMEE 181900Z AUTO 18006KT 150V240 9999 NCD 19/16 Q1019 NOSIG

Time: 23:18 (19:18 UTC)

Forecast

The report was made 2 hours and 18 minutes ago, at 17:00 UTC
Forecast valid from 18 at 18 UTC to 19 at 24 UTC
Wind 5 kt from the South
Visibility 10 km or more
Few clouds at a height of 3000 ft
Scattered clouds at a height of 6000 ft
Becoming
from 19 at 04 UTC to 19 at 06 UTC
Wind 14 kt from the East
Becoming
from 19 at 14 UTC to 19 at 16 UTC
Wind 5 kt from the South/Southeast

TAF: FMEE 181700Z 1818/1924 18005KT 9999 FEW030 SCT060 BECMG 1904/1906 10014KT BECMG 1914/1916 16005KT

Weather observations and forecasts of more than 4000 airports (METAR and TAF reports).

The available stations are represented by yellow and red dots on the map.

Hover mouse over dot to see the name of the station.

Then click to see weather observations and forecasts.

To change the map : click on the green buttons with a black cross to zoom in, on the green button with a dash to zoom out, or on the green arrows for adjacent maps.


METAR-TAF: